createdAt,value
2024-02-21T00:00:58.967Z,9.32
2024-02-21T00:30:42.799Z,9.41
2024-02-21T01:15:16.531Z,9.34
2024-02-21T01:45:01.388Z,9.03
2024-02-21T02:29:36.349Z,8.96
2024-02-21T02:44:27.613Z,8.97
2024-02-21T02:59:19.743Z,8.92
2024-02-21T03:14:10.807Z,8.84
2024-02-21T03:29:02.503Z,8.85
2024-02-21T03:43:53.459Z,8.80
2024-02-21T03:58:44.923Z,8.72
2024-02-21T04:13:35.585Z,8.57
2024-02-21T04:28:26.915Z,8.44
2024-02-21T04:43:18.545Z,8.36
2024-02-21T04:58:08.851Z,8.23
2024-02-21T05:12:59.290Z,8.04
2024-02-21T05:27:49.990Z,7.88
2024-02-21T05:42:41.332Z,7.72
2024-02-21T05:57:33.036Z,7.65
2024-02-21T06:12:26.238Z,7.58
2024-02-21T06:27:16.872Z,7.55
2024-02-21T06:42:07.588Z,7.56
2024-02-21T06:56:58.053Z,7.49
2024-02-21T07:11:50.692Z,7.53
2024-02-21T07:26:42.364Z,7.61
2024-02-21T07:41:34.076Z,7.73
2024-02-21T07:56:26.151Z,8.02
2024-02-21T08:11:17.955Z,8.21
2024-02-21T08:26:10.398Z,8.36
2024-02-21T08:41:02.556Z,8.64
2024-02-21T08:55:54.340Z,8.93
2024-02-21T09:10:47.152Z,9.31
2024-02-21T09:25:40.166Z,9.78
2024-02-21T09:40:33.532Z,10.07
2024-02-21T09:55:26.055Z,10.45
2024-02-21T10:10:17.855Z,10.57
2024-02-21T10:25:11.112Z,10.61
2024-02-21T10:40:06.506Z,10.99
2024-02-21T10:55:01.137Z,11.32
2024-02-21T11:54:30.396Z,12.01
2024-02-21T12:54:02.010Z,12.26
2024-02-21T13:08:52.866Z,12.24
2024-02-21T13:23:44.621Z,12.40
2024-02-21T14:44:15.838Z,12.70
2024-02-21T15:29:41.877Z,12.57
2024-02-21T15:44:33.209Z,12.55
2024-02-21T15:59:24.910Z,12.46
2024-02-21T16:14:16.863Z,12.48
2024-02-21T16:29:08.231Z,12.35
2024-02-21T16:43:59.691Z,12.29
2024-02-21T16:58:52.033Z,12.13
2024-02-21T17:13:43.566Z,12.06
2024-02-21T17:28:33.990Z,11.97
2024-02-21T17:43:25.169Z,11.88
2024-02-21T17:58:16.410Z,11.80
2024-02-21T18:13:08.099Z,11.72
2024-02-21T18:27:59.198Z,11.66
2024-02-21T18:42:52.768Z,11.64
2024-02-21T18:57:46.524Z,11.64
2024-02-21T19:12:38.444Z,11.63
2024-02-21T19:27:30.168Z,11.60
2024-02-21T19:42:22.302Z,11.63
2024-02-21T19:57:14.399Z,11.62
2024-02-21T20:12:05.885Z,11.55
2024-02-21T20:26:58.264Z,11.77
2024-02-21T20:41:51.225Z,12.21
2024-02-21T20:56:42.534Z,12.15
2024-02-21T21:26:25.153Z,11.96
2024-02-21T21:41:16.699Z,11.88
2024-02-21T21:56:08.118Z,11.58
2024-02-21T22:10:58.244Z,11.24
2024-02-21T22:25:49.900Z,10.95
2024-02-21T22:40:53.523Z,10.84
2024-02-21T22:55:46.876Z,10.86
2024-02-21T23:10:41.167Z,10.84
2024-02-21T23:40:39.781Z,10.81
2024-02-21T23:55:33.420Z,10.65
